sensor_id;sensor_type;location;lat;lon;timestamp;temperature;humidity
26326;DHT22;14032;52.510;7.342;2022-07-06T00:02:14;13.30;99.90
26326;DHT22;14032;52.510;7.342;2022-07-06T00:04:40;13.30;99.90
26326;DHT22;14032;52.510;7.342;2022-07-06T00:07:06;13.20;99.90
26326;DHT22;14032;52.510;7.342;2022-07-06T00:09:33;13.20;99.90
26326;DHT22;14032;52.510;7.342;2022-07-06T00:11:58;13.20;99.90
26326;DHT22;14032;52.510;7.342;2022-07-06T00:14:24;13.10;99.90
26326;DHT22;14032;52.510;7.342;2022-07-06T00:16:50;13.00;99.90
26326;DHT22;14032;52.510;7.342;2022-07-06T00:19:15;13.00;99.90
26326;DHT22;14032;52.510;7.342;2022-07-06T00:21:41;13.00;99.90
26326;DHT22;14032;52.510;7.342;2022-07-06T00:24:07;13.10;99.90
26326;DHT22;14032;52.510;7.342;2022-07-06T00:26:32;13.00;99.90
26326;DHT22;14032;52.510;7.342;2022-07-06T00:28:58;13.00;99.90
26326;DHT22;14032;52.510;7.342;2022-07-06T00:31:24;12.90;99.90
26326;DHT22;14032;52.510;7.342;2022-07-06T00:33:49;12.90;99.90
26326;DHT22;14032;52.510;7.342;2022-07-06T00:36:15;12.90;99.90
26326;DHT22;14032;52.510;7.342;2022-07-06T00:38:40;12.90;99.90
26326;DHT22;14032;52.510;7.342;2022-07-06T00:41:06;12.90;99.90
26326;DHT22;14032;52.510;7.342;2022-07-06T00:43:52;12.90;99.90
26326;DHT22;14032;52.510;7.342;2022-07-06T00:46:18;12.80;99.90
26326;DHT22;14032;52.510;7.342;2022-07-06T00:48:44;12.80;99.90
26326;DHT22;14032;52.510;7.342;2022-07-06T00:51:11;12.90;99.90
26326;DHT22;14032;52.510;7.342;2022-07-06T00:53:37;12.80;99.90
26326;DHT22;14032;52.510;7.342;2022-07-06T00:56:03;12.70;99.90
26326;DHT22;14032;52.510;7.342;2022-07-06T00:58:29;12.70;99.90
26326;DHT22;14032;52.510;7.342;2022-07-06T01:00:54;12.70;99.90
26326;DHT22;14032;52.510;7.342;2022-07-06T01:03:20;12.70;99.90
26326;DHT22;14032;52.510;7.342;2022-07-06T01:05:45;12.70;99.90
26326;DHT22;14032;52.510;7.342;2022-07-06T01:08:12;12.60;99.90
26326;DHT22;14032;52.510;7.342;2022-07-06T01:10:37;12.60;99.90
26326;DHT22;14032;52.510;7.342;2022-07-06T01:13:03;12.60;99.90
26326;DHT22;14032;52.510;7.342;2022-07-06T01:15:29;12.50;99.90
26326;DHT22;14032;52.510;7.342;2022-07-06T01:17:55;12.50;99.90
26326;DHT22;14032;52.510;7.342;2022-07-06T01:20:22;12.40;99.90
26326;DHT22;14032;52.510;7.342;2022-07-06T01:22:50;12.40;99.90
26326;DHT22;14032;52.510;7.342;2022-07-06T01:25:16;12.40;99.90
26326;DHT22;14032;52.510;7.342;2022-07-06T01:27:43;12.40;99.90
26326;DHT22;14032;52.510;7.342;2022-07-06T01:30:14;12.40;99.90
26326;DHT22;14032;52.510;7.342;2022-07-06T01:32:40;12.30;99.90
26326;DHT22;14032;52.510;7.342;2022-07-06T01:35:09;12.40;99.90
26326;DHT22;14032;52.510;7.342;2022-07-06T01:37:35;12.40;99.90
26326;DHT22;14032;52.510;7.342;2022-07-06T01:40:02;12.40;99.90
26326;DHT22;14032;52.510;7.342;2022-07-06T01:42:28;12.30;99.90
26326;DHT22;14032;52.510;7.342;2022-07-06T01:44:54;12.30;99.90
26326;DHT22;14032;52.510;7.342;2022-07-06T01:47:20;12.30;99.90
26326;DHT22;14032;52.510;7.342;2022-07-06T01:49:46;12.40;99.90
26326;DHT22;14032;52.510;7.342;2022-07-06T01:52:12;12.40;99.90
26326;DHT22;14032;52.510;7.342;2022-07-06T01:54:38;12.40;99.90
26326;DHT22;14032;52.510;7.342;2022-07-06T01:57:04;12.40;99.90
26326;DHT22;14032;52.510;7.342;2022-07-06T01:59:29;12.40;99.90
26326;DHT22;14032;52.510;7.342;2022-07-06T02:01:55;12.40;99.90
26326;DHT22;14032;52.510;7.342;2022-07-06T02:04:21;12.40;99.90
26326;DHT22;14032;52.510;7.342;2022-07-06T02:06:46;12.40;99.90
26326;DHT22;14032;52.510;7.342;2022-07-06T02:09:12;12.40;99.90
26326;DHT22;14032;52.510;7.342;2022-07-06T02:11:38;12.40;99.90
26326;DHT22;14032;52.510;7.342;2022-07-06T02:14:03;12.40;99.90
26326;DHT22;14032;52.510;7.342;2022-07-06T02:16:29;12.40;99.90
26326;DHT22;14032;52.510;7.342;2022-07-06T02:18:55;12.40;99.90
26326;DHT22;14032;52.510;7.342;2022-07-06T02:21:20;12.40;99.90
26326;DHT22;14032;52.510;7.342;2022-07-06T02:23:46;12.40;99.90
26326;DHT22;14032;52.510;7.342;2022-07-06T02:26:11;12.40;99.90
26326;DHT22;14032;52.510;7.342;2022-07-06T02:28:37;12.40;99.90
26326;DHT22;14032;52.510;7.342;2022-07-06T02:31:03;12.40;99.90
26326;DHT22;14032;52.510;7.342;2022-07-06T02:33:28;12.40;99.90
26326;DHT22;14032;52.510;7.342;2022-07-06T02:35:54;12.40;99.90
26326;DHT22;14032;52.510;7.342;2022-07-06T02:38:20;12.40;99.90
26326;DHT22;14032;52.510;7.342;2022-07-06T02:40:46;12.50;99.90
26326;DHT22;14032;52.510;7.342;2022-07-06T02:43:12;12.50;99.90
26326;DHT22;14032;52.510;7.342;2022-07-06T02:45:38;12.50;99.90
26326;DHT22;14032;52.510;7.342;2022-07-06T02:48:04;12.50;99.90
26326;DHT22;14032;52.510;7.342;2022-07-06T02:50:29;12.50;99.90
26326;DHT22;14032;52.510;7.342;2022-07-06T02:52:55;12.60;99.90
26326;DHT22;14032;52.510;7.342;2022-07-06T02:55:21;12.60;99.90
26326;DHT22;14032;52.510;7.342;2022-07-06T02:57:47;12.60;99.90
26326;DHT22;14032;52.510;7.342;2022-07-06T03:00:13;12.60;99.90
26326;DHT22;14032;52.510;7.342;2022-07-06T03:02:39;12.70;99.90
26326;DHT22;14032;52.510;7.342;2022-07-06T03:05:05;12.70;99.90
26326;DHT22;14032;52.510;7.342;2022-07-06T03:07:33;12.70;99.90
26326;DHT22;14032;52.510;7.342;2022-07-06T03:09:58;12.70;99.90
26326;DHT22;14032;52.510;7.342;2022-07-06T03:12:24;12.80;99.90
26326;DHT22;14032;52.510;7.342;2022-07-06T03:14:49;12.70;99.90
26326;DHT22;14032;52.510;7.342;2022-07-06T03:17:15;12.80;99.90
26326;DHT22;14032;52.510;7.342;2022-07-06T03:19:40;12.80;99.90
26326;DHT22;14032;52.510;7.342;2022-07-06T03:22:06;12.70;99.90
26326;DHT22;14032;52.510;7.342;2022-07-06T03:24:32;12.80;99.90
26326;DHT22;14032;52.510;7.342;2022-07-06T03:26:57;12.80;99.90
26326;DHT22;14032;52.510;7.342;2022-07-06T03:29:23;12.70;99.90
26326;DHT22;14032;52.510;7.342;2022-07-06T03:31:48;12.70;99.90
26326;DHT22;14032;52.510;7.342;2022-07-06T03:34:14;12.70;99.90
26326;DHT22;14032;52.510;7.342;2022-07-06T03:36:39;12.70;99.90
26326;DHT22;14032;52.510;7.342;2022-07-06T03:39:05;12.70;99.90
26326;DHT22;14032;52.510;7.342;2022-07-06T03:41:31;12.80;99.90
26326;DHT22;14032;52.510;7.342;2022-07-06T03:43:58;12.80;99.90
26326;DHT22;14032;52.510;7.342;2022-07-06T03:46:23;12.80;99.90
26326;DHT22;14032;52.510;7.342;2022-07-06T03:48:49;12.80;99.90
26326;DHT22;14032;52.510;7.342;2022-07-06T03:51:14;12.80;99.90
26326;DHT22;14032;52.510;7.342;2022-07-06T03:53:40;12.80;99.90
26326;DHT22;14032;52.510;7.342;2022-07-06T03:56:05;12.70;99.90
26326;DHT22;14032;52.510;7.342;2022-07-06T03:58:50;12.80;99.90
26326;DHT22;14032;52.510;7.342;2022-07-06T04:01:15;12.70;99.90
26326;DHT22;14032;52.510;7.342;2022-07-06T04:03:41;12.70;99.90
26326;DHT22;14032;52.510;7.342;2022-07-06T04:06:06;12.70;99.90
26326;DHT22;14032;52.510;7.342;2022-07-06T04:08:32;12.80;99.90
26326;DHT22;14032;52.510;7.342;2022-07-06T04:10:58;12.80;99.90
26326;DHT22;14032;52.510;7.342;2022-07-06T04:13:23;12.80;99.90
26326;DHT22;14032;52.510;7.342;2022-07-06T04:15:51;12.80;99.90
26326;DHT22;14032;52.510;7.342;2022-07-06T04:18:16;12.80;99.90
26326;DHT22;14032;52.510;7.342;2022-07-06T04:20:42;12.80;99.90
26326;DHT22;14032;52.510;7.342;2022-07-06T04:23:08;12.80;99.90
26326;DHT22;14032;52.510;7.342;2022-07-06T04:25:34;12.80;99.90
26326;DHT22;14032;52.510;7.342;2022-07-06T04:27:59;12.90;99.90
26326;DHT22;14032;52.510;7.342;2022-07-06T04:30:25;12.90;99.90
26326;DHT22;14032;52.510;7.342;2022-07-06T04:32:51;13.00;99.90
26326;DHT22;14032;52.510;7.342;2022-07-06T04:35:16;13.00;99.90
26326;DHT22;14032;52.510;7.342;2022-07-06T04:37:42;13.00;99.90
26326;DHT22;14032;52.510;7.342;2022-07-06T04:40:13;13.00;99.90
26326;DHT22;14032;52.510;7.342;2022-07-06T04:42:38;13.00;99.90
26326;DHT22;14032;52.510;7.342;2022-07-06T04:45:05;13.10;99.90
26326;DHT22;14032;52.510;7.342;2022-07-06T04:47:31;13.10;99.90
26326;DHT22;14032;52.510;7.342;2022-07-06T04:49:56;13.20;99.90
26326;DHT22;14032;52.510;7.342;2022-07-06T04:52:22;13.20;99.90
26326;DHT22;14032;52.510;7.342;2022-07-06T04:54:47;13.20;99.90
26326;DHT22;14032;52.510;7.342;2022-07-06T04:57:13;13.20;99.90
26326;DHT22;14032;52.510;7.342;2022-07-06T04:59:39;13.20;99.90
26326;DHT22;14032;52.510;7.342;2022-07-06T05:02:05;13.20;99.90
26326;DHT22;14032;52.510;7.342;2022-07-06T05:04:30;13.30;99.90
26326;DHT22;14032;52.510;7.342;2022-07-06T05:06:56;13.30;99.90
26326;DHT22;14032;52.510;7.342;2022-07-06T05:09:21;13.30;99.90
26326;DHT22;14032;52.510;7.342;2022-07-06T05:11:47;13.40;99.90
26326;DHT22;14032;52.510;7.342;2022-07-06T05:14:12;13.40;99.90
26326;DHT22;14032;52.510;7.342;2022-07-06T05:16:38;13.40;99.90
26326;DHT22;14032;52.510;7.342;2022-07-06T05:19:04;13.50;99.90
26326;DHT22;14032;52.510;7.342;2022-07-06T05:21:30;13.50;99.90
26326;DHT22;14032;52.510;7.342;2022-07-06T05:23:55;13.50;99.90
26326;DHT22;14032;52.510;7.342;2022-07-06T05:26:21;13.60;99.90
26326;DHT22;14032;52.510;7.342;2022-07-06T05:28:46;13.60;99.90
26326;DHT22;14032;52.510;7.342;2022-07-06T05:31:12;13.70;99.90
26326;DHT22;14032;52.510;7.342;2022-07-06T05:33:37;13.70;99.90
26326;DHT22;14032;52.510;7.342;2022-07-06T05:36:03;13.70;99.90
26326;DHT22;14032;52.510;7.342;2022-07-06T05:38:29;13.80;99.90
26326;DHT22;14032;52.510;7.342;2022-07-06T05:40:55;13.90;99.90
26326;DHT22;14032;52.510;7.342;2022-07-06T05:43:20;13.90;99.90
26326;DHT22;14032;52.510;7.342;2022-07-06T05:45:46;13.90;99.90
26326;DHT22;14032;52.510;7.342;2022-07-06T05:48:11;14.00;99.90
26326;DHT22;14032;52.510;7.342;2022-07-06T05:50:56;14.10;99.90
26326;DHT22;14032;52.510;7.342;2022-07-06T05:53:21;14.30;99.90
26326;DHT22;14032;52.510;7.342;2022-07-06T05:55:47;14.50;99.90
26326;DHT22;14032;52.510;7.342;2022-07-06T05:58:13;14.60;99.90
26326;DHT22;14032;52.510;7.342;2022-07-06T06:00:39;14.80;99.90
26326;DHT22;14032;52.510;7.342;2022-07-06T06:03:04;15.00;99.90
26326;DHT22;14032;52.510;7.342;2022-07-06T06:05:30;15.20;99.90
26326;DHT22;14032;52.510;7.342;2022-07-06T06:07:56;15.30;99.90
26326;DHT22;14032;52.510;7.342;2022-07-06T06:10:21;15.40;99.90
26326;DHT22;14032;52.510;7.342;2022-07-06T06:12:47;15.60;99.90
26326;DHT22;14032;52.510;7.342;2022-07-06T06:15:13;15.70;99.90
26326;DHT22;14032;52.510;7.342;2022-07-06T06:17:39;15.70;99.90
26326;DHT22;14032;52.510;7.342;2022-07-06T06:20:08;15.70;99.90
26326;DHT22;14032;52.510;7.342;2022-07-06T06:22:44;15.80;99.90
26326;DHT22;14032;52.510;7.342;2022-07-06T06:25:11;15.90;99.90
26326;DHT22;14032;52.510;7.342;2022-07-06T06:27:36;16.00;99.90
26326;DHT22;14032;52.510;7.342;2022-07-06T06:30:02;16.00;99.90
26326;DHT22;14032;52.510;7.342;2022-07-06T06:32:29;16.00;99.90
26326;DHT22;14032;52.510;7.342;2022-07-06T06:34:55;16.10;99.90
26326;DHT22;14032;52.510;7.342;2022-07-06T06:37:20;16.10;99.90
26326;DHT22;14032;52.510;7.342;2022-07-06T06:39:46;16.10;99.90
26326;DHT22;14032;52.510;7.342;2022-07-06T06:42:11;16.20;99.90
26326;DHT22;14032;52.510;7.342;2022-07-06T06:44:37;16.30;99.90
26326;DHT22;14032;52.510;7.342;2022-07-06T06:47:03;16.40;99.90
26326;DHT22;14032;52.510;7.342;2022-07-06T06:49:28;16.50;99.90
26326;DHT22;14032;52.510;7.342;2022-07-06T06:51:54;16.50;99.90
26326;DHT22;14032;52.510;7.342;2022-07-06T06:54:19;16.60;99.90
26326;DHT22;14032;52.510;7.342;2022-07-06T06:56:45;16.60;99.90
26326;DHT22;14032;52.510;7.342;2022-07-06T06:59:10;16.50;99.90
26326;DHT22;14032;52.510;7.342;2022-07-06T07:01:36;16.60;99.90
26326;DHT22;14032;52.510;7.342;2022-07-06T07:04:02;16.50;99.90
26326;DHT22;14032;52.510;7.342;2022-07-06T07:06:27;16.50;99.90
26326;DHT22;14032;52.510;7.342;2022-07-06T07:08:53;16.70;99.90
26326;DHT22;14032;52.510;7.342;2022-07-06T07:11:20;16.70;99.90
26326;DHT22;14032;52.510;7.342;2022-07-06T07:13:46;16.70;99.90
26326;DHT22;14032;52.510;7.342;2022-07-06T07:16:11;16.80;99.90
26326;DHT22;14032;52.510;7.342;2022-07-06T07:18:37;16.80;99.90
26326;DHT22;14032;52.510;7.342;2022-07-06T07:21:02;16.80;99.90
26326;DHT22;14032;52.510;7.342;2022-07-06T07:23:28;16.80;99.90
26326;DHT22;14032;52.510;7.342;2022-07-06T07:25:54;16.80;99.90
26326;DHT22;14032;52.510;7.342;2022-07-06T07:28:19;16.80;99.90
26326;DHT22;14032;52.510;7.342;2022-07-06T07:30:45;16.70;99.90
26326;DHT22;14032;52.510;7.342;2022-07-06T07:33:10;16.70;99.90
26326;DHT22;14032;52.510;7.342;2022-07-06T07:35:36;16.70;99.90
26326;DHT22;14032;52.510;7.342;2022-07-06T07:38:01;16.70;99.90
26326;DHT22;14032;52.510;7.342;2022-07-06T07:40:27;16.80;99.90
26326;DHT22;14032;52.510;7.342;2022-07-06T07:42:53;16.90;99.90
26326;DHT22;14032;52.510;7.342;2022-07-06T07:45:18;17.10;99.90
26326;DHT22;14032;52.510;7.342;2022-07-06T07:47:44;17.10;99.90
26326;DHT22;14032;52.510;7.342;2022-07-06T07:50:10;16.90;99.90
26326;DHT22;14032;52.510;7.342;2022-07-06T07:52:36;16.90;99.90
26326;DHT22;14032;52.510;7.342;2022-07-06T07:55:02;16.70;99.90
26326;DHT22;14032;52.510;7.342;2022-07-06T07:57:27;16.70;99.90
26326;DHT22;14032;52.510;7.342;2022-07-06T07:59:53;16.70;99.90
26326;DHT22;14032;52.510;7.342;2022-07-06T08:02:18;16.60;99.90
26326;DHT22;14032;52.510;7.342;2022-07-06T08:04:44;16.60;99.90
26326;DHT22;14032;52.510;7.342;2022-07-06T08:07:09;16.70;99.90
26326;DHT22;14032;52.510;7.342;2022-07-06T08:09:35;16.70;99.90
26326;DHT22;14032;52.510;7.342;2022-07-06T08:12:01;16.80;99.90
26326;DHT22;14032;52.510;7.342;2022-07-06T08:14:26;16.80;99.90
26326;DHT22;14032;52.510;7.342;2022-07-06T08:16:52;16.80;99.90
26326;DHT22;14032;52.510;7.342;2022-07-06T08:19:18;16.90;99.90
26326;DHT22;14032;52.510;7.342;2022-07-06T08:21:44;16.90;99.90
26326;DHT22;14032;52.510;7.342;2022-07-06T08:24:10;16.90;99.90
26326;DHT22;14032;52.510;7.342;2022-07-06T08:26:36;17.00;99.90
26326;DHT22;14032;52.510;7.342;2022-07-06T08:29:02;17.00;99.90
26326;DHT22;14032;52.510;7.342;2022-07-06T08:31:28;16.90;99.90
26326;DHT22;14032;52.510;7.342;2022-07-06T08:33:54;17.00;99.90
26326;DHT22;14032;52.510;7.342;2022-07-06T08:36:20;17.00;99.90
26326;DHT22;14032;52.510;7.342;2022-07-06T08:38:47;16.90;99.90
26326;DHT22;14032;52.510;7.342;2022-07-06T08:41:14;16.90;99.90
26326;DHT22;14032;52.510;7.342;2022-07-06T08:43:40;16.90;99.90
26326;DHT22;14032;52.510;7.342;2022-07-06T08:46:07;16.90;99.90
26326;DHT22;14032;52.510;7.342;2022-07-06T08:48:37;16.90;99.90
26326;DHT22;14032;52.510;7.342;2022-07-06T08:51:04;16.90;99.90
26326;DHT22;14032;52.510;7.342;2022-07-06T08:53:30;17.10;99.90
26326;DHT22;14032;52.510;7.342;2022-07-06T08:55:56;17.20;99.90
26326;DHT22;14032;52.510;7.342;2022-07-06T08:58:26;17.30;99.90
26326;DHT22;14032;52.510;7.342;2022-07-06T09:00:54;17.40;99.90
26326;DHT22;14032;52.510;7.342;2022-07-06T09:03:20;17.50;99.90
26326;DHT22;14032;52.510;7.342;2022-07-06T09:05:46;17.60;99.90
26326;DHT22;14032;52.510;7.342;2022-07-06T09:08:13;17.60;99.90
26326;DHT22;14032;52.510;7.342;2022-07-06T09:10:39;17.50;99.90
26326;DHT22;14032;52.510;7.342;2022-07-06T09:13:06;17.50;99.90
26326;DHT22;14032;52.510;7.342;2022-07-06T09:15:33;17.60;99.90
26326;DHT22;14032;52.510;7.342;2022-07-06T09:17:59;17.50;99.90
26326;DHT22;14032;52.510;7.342;2022-07-06T09:20:25;17.40;99.90
26326;DHT22;14032;52.510;7.342;2022-07-06T09:22:50;17.40;99.90
26326;DHT22;14032;52.510;7.342;2022-07-06T09:25:19;17.30;99.90
26326;DHT22;14032;52.510;7.342;2022-07-06T09:27:46;17.20;99.90
26326;DHT22;14032;52.510;7.342;2022-07-06T09:30:20;17.20;99.90
26326;DHT22;14032;52.510;7.342;2022-07-06T09:32:51;17.10;99.90
26326;DHT22;14032;52.510;7.342;2022-07-06T09:35:21;17.10;99.90
26326;DHT22;14032;52.510;7.342;2022-07-06T09:37:47;17.00;99.90
26326;DHT22;14032;52.510;7.342;2022-07-06T09:40:17;16.90;99.90
26326;DHT22;14032;52.510;7.342;2022-07-06T09:42:44;16.80;99.90
26326;DHT22;14032;52.510;7.342;2022-07-06T09:45:10;16.70;99.90
26326;DHT22;14032;52.510;7.342;2022-07-06T09:47:35;16.70;99.90
26326;DHT22;14032;52.510;7.342;2022-07-06T09:50:05;16.70;99.90
26326;DHT22;14032;52.510;7.342;2022-07-06T09:52:34;16.90;99.90
26326;DHT22;14032;52.510;7.342;2022-07-06T09:55:00;17.20;99.90
26326;DHT22;14032;52.510;7.342;2022-07-06T09:57:25;17.50;99.90
26326;DHT22;14032;52.510;7.342;2022-07-06T09:59:51;17.70;99.90
26326;DHT22;14032;52.510;7.342;2022-07-06T10:02:20;17.90;99.90
26326;DHT22;14032;52.510;7.342;2022-07-06T10:04:46;18.10;99.90
26326;DHT22;14032;52.510;7.342;2022-07-06T10:07:13;18.10;99.90
26326;DHT22;14032;52.510;7.342;2022-07-06T10:09:40;18.20;99.90
26326;DHT22;14032;52.510;7.342;2022-07-06T10:12:09;18.30;99.90
26326;DHT22;14032;52.510;7.342;2022-07-06T10:14:39;18.30;99.90
26326;DHT22;14032;52.510;7.342;2022-07-06T10:17:06;18.30;99.90
26326;DHT22;14032;52.510;7.342;2022-07-06T10:19:32;18.20;99.90
26326;DHT22;14032;52.510;7.342;2022-07-06T10:21:59;18.10;99.90
26326;DHT22;14032;52.510;7.342;2022-07-06T10:24:27;18.20;99.90
26326;DHT22;14032;52.510;7.342;2022-07-06T10:26:54;18.30;99.90
26326;DHT22;14032;52.510;7.342;2022-07-06T10:29:20;18.30;99.90
26326;DHT22;14032;52.510;7.342;2022-07-06T10:31:47;18.40;99.90
26326;DHT22;14032;52.510;7.342;2022-07-06T10:34:15;18.60;99.90
26326;DHT22;14032;52.510;7.342;2022-07-06T10:36:44;18.50;99.90
26326;DHT22;14032;52.510;7.342;2022-07-06T10:39:11;18.40;99.90
26326;DHT22;14032;52.510;7.342;2022-07-06T10:41:55;18.30;99.90
26326;DHT22;14032;52.510;7.342;2022-07-06T10:44:23;18.20;99.90
26326;DHT22;14032;52.510;7.342;2022-07-06T10:46:58;18.10;99.90
26326;DHT22;14032;52.510;7.342;2022-07-06T10:49:26;18.20;99.90
26326;DHT22;14032;52.510;7.342;2022-07-06T10:51:52;18.40;99.90
26326;DHT22;14032;52.510;7.342;2022-07-06T10:54:19;18.70;99.90
26326;DHT22;14032;52.510;7.342;2022-07-06T10:56:49;18.70;99.90
26326;DHT22;14032;52.510;7.342;2022-07-06T10:59:20;18.60;99.90
26326;DHT22;14032;52.510;7.342;2022-07-06T11:04:37;18.40;99.90
26326;DHT22;14032;52.510;7.342;2022-07-06T11:07:08;18.60;99.90
26326;DHT22;14032;52.510;7.342;2022-07-06T11:09:35;18.80;99.90
26326;DHT22;14032;52.510;7.342;2022-07-06T11:12:13;18.80;99.90
26326;DHT22;14032;52.510;7.342;2022-07-06T11:14:39;18.70;99.90
26326;DHT22;14032;52.510;7.342;2022-07-06T11:17:09;18.70;99.90
26326;DHT22;14032;52.510;7.342;2022-07-06T11:19:35;18.70;99.90
26326;DHT22;14032;52.510;7.342;2022-07-06T11:22:09;18.70;99.90
26326;DHT22;14032;52.510;7.342;2022-07-06T11:24:37;18.70;99.90
26326;DHT22;14032;52.510;7.342;2022-07-06T11:27:04;18.70;99.90
26326;DHT22;14032;52.510;7.342;2022-07-06T11:29:32;18.60;99.90
26326;DHT22;14032;52.510;7.342;2022-07-06T11:32:00;18.50;99.90
26326;DHT22;14032;52.510;7.342;2022-07-06T11:34:49;18.50;99.90
26326;DHT22;14032;52.510;7.342;2022-07-06T11:37:15;18.40;99.90
26326;DHT22;14032;52.510;7.342;2022-07-06T11:39:42;18.30;99.90
26326;DHT22;14032;52.510;7.342;2022-07-06T11:42:18;18.30;99.90
26326;DHT22;14032;52.510;7.342;2022-07-06T11:44:45;18.30;99.90
26326;DHT22;14032;52.510;7.342;2022-07-06T11:47:11;18.30;99.90
26326;DHT22;14032;52.510;7.342;2022-07-06T11:49:38;18.50;99.90
26326;DHT22;14032;52.510;7.342;2022-07-06T11:52:08;18.70;99.90
26326;DHT22;14032;52.510;7.342;2022-07-06T11:54:34;18.90;99.90
26326;DHT22;14032;52.510;7.342;2022-07-06T11:57:00;19.10;99.90
26326;DHT22;14032;52.510;7.342;2022-07-06T11:59:28;19.30;99.90
26326;DHT22;14032;52.510;7.342;2022-07-06T12:04:30;19.60;97.90
26326;DHT22;14032;52.510;7.342;2022-07-06T12:07:04;19.70;97.80
26326;DHT22;14032;52.510;7.342;2022-07-06T12:09:33;19.60;98.90
26326;DHT22;14032;52.510;7.342;2022-07-06T12:12:00;19.70;97.90
26326;DHT22;14032;52.510;7.342;2022-07-06T12:14:31;19.70;97.10
26326;DHT22;14032;52.510;7.342;2022-07-06T12:17:03;19.60;96.30
26326;DHT22;14032;52.510;7.342;2022-07-06T12:19:29;19.50;95.10
26326;DHT22;14032;52.510;7.342;2022-07-06T12:21:54;19.50;95.80
26326;DHT22;14032;52.510;7.342;2022-07-06T12:24:27;19.50;95.80
26326;DHT22;14032;52.510;7.342;2022-07-06T12:26:54;19.70;95.00
26326;DHT22;14032;52.510;7.342;2022-07-06T12:29:21;19.80;95.90
26326;DHT22;14032;52.510;7.342;2022-07-06T12:31:51;19.80;96.80
26326;DHT22;14032;52.510;7.342;2022-07-06T12:34:18;19.70;95.90
26326;DHT22;14032;52.510;7.342;2022-07-06T12:36:46;19.70;96.40
26326;DHT22;14032;52.510;7.342;2022-07-06T12:39:14;19.70;96.70
26326;DHT22;14032;52.510;7.342;2022-07-06T12:41:51;19.70;96.00
26326;DHT22;14032;52.510;7.342;2022-07-06T12:44:25;19.70;95.20
26326;DHT22;14032;52.510;7.342;2022-07-06T12:47:08;19.70;95.30
26326;DHT22;14032;52.510;7.342;2022-07-06T12:49:36;19.70;95.90
26326;DHT22;14032;52.510;7.342;2022-07-06T12:52:07;19.70;94.30
26326;DHT22;14032;52.510;7.342;2022-07-06T12:57:04;19.70;95.00
26326;DHT22;14032;52.510;7.342;2022-07-06T12:59:33;19.70;96.00
26326;DHT22;14032;52.510;7.342;2022-07-06T13:01:59;19.60;95.90
26326;DHT22;14032;52.510;7.342;2022-07-06T13:04:26;19.50;96.20
26326;DHT22;14032;52.510;7.342;2022-07-06T13:06:52;19.40;96.10
26326;DHT22;14032;52.510;7.342;2022-07-06T13:09:19;19.40;96.10
26326;DHT22;14032;52.510;7.342;2022-07-06T13:11:45;19.30;96.80
26326;DHT22;14032;52.510;7.342;2022-07-06T13:14:12;19.30;96.50
26326;DHT22;14032;52.510;7.342;2022-07-06T13:16:38;19.30;96.50
26326;DHT22;14032;52.510;7.342;2022-07-06T13:19:03;19.20;96.30
26326;DHT22;14032;52.510;7.342;2022-07-06T13:21:29;19.20;97.30
26326;DHT22;14032;52.510;7.342;2022-07-06T13:23:55;19.10;97.50
26326;DHT22;14032;52.510;7.342;2022-07-06T13:26:21;19.10;96.80
26326;DHT22;14032;52.510;7.342;2022-07-06T13:28:46;19.00;96.70
26326;DHT22;14032;52.510;7.342;2022-07-06T13:31:12;18.90;97.30
26326;DHT22;14032;52.510;7.342;2022-07-06T13:33:38;18.90;97.60
26326;DHT22;14032;52.510;7.342;2022-07-06T13:36:05;18.90;97.40
26326;DHT22;14032;52.510;7.342;2022-07-06T13:38:31;18.80;98.00
26326;DHT22;14032;52.510;7.342;2022-07-06T13:40:56;18.80;99.00
26326;DHT22;14032;52.510;7.342;2022-07-06T13:43:22;18.80;98.90
26326;DHT22;14032;52.510;7.342;2022-07-06T13:45:48;18.80;98.80
26326;DHT22;14032;52.510;7.342;2022-07-06T13:48:14;18.80;98.50
26326;DHT22;14032;52.510;7.342;2022-07-06T13:50:39;18.70;98.50
26326;DHT22;14032;52.510;7.342;2022-07-06T13:53:05;18.70;98.80
26326;DHT22;14032;52.510;7.342;2022-07-06T13:55:32;18.70;98.60
26326;DHT22;14032;52.510;7.342;2022-07-06T13:57:57;18.70;98.90
26326;DHT22;14032;52.510;7.342;2022-07-06T14:00:23;18.70;98.50
26326;DHT22;14032;52.510;7.342;2022-07-06T14:02:49;18.80;98.90
26326;DHT22;14032;52.510;7.342;2022-07-06T14:05:15;18.80;98.50
26326;DHT22;14032;52.510;7.342;2022-07-06T14:07:40;18.90;98.80
26326;DHT22;14032;52.510;7.342;2022-07-06T14:10:06;18.90;99.10
26326;DHT22;14032;52.510;7.342;2022-07-06T14:12:32;18.90;99.60
26326;DHT22;14032;52.510;7.342;2022-07-06T14:14:58;18.90;99.60
26326;DHT22;14032;52.510;7.342;2022-07-06T14:17:25;18.80;99.80
26326;DHT22;14032;52.510;7.342;2022-07-06T14:19:51;18.80;99.90
26326;DHT22;14032;52.510;7.342;2022-07-06T14:22:17;18.90;99.90
26326;DHT22;14032;52.510;7.342;2022-07-06T14:24:42;19.00;99.90
26326;DHT22;14032;52.510;7.342;2022-07-06T14:27:08;19.10;99.90
26326;DHT22;14032;52.510;7.342;2022-07-06T14:29:34;19.20;99.60
26326;DHT22;14032;52.510;7.342;2022-07-06T14:31:59;19.20;99.20
26326;DHT22;14032;52.510;7.342;2022-07-06T14:34:25;19.20;99.40
26326;DHT22;14032;52.510;7.342;2022-07-06T14:36:51;19.30;99.00
26326;DHT22;14032;52.510;7.342;2022-07-06T14:39:17;19.40;98.90
26326;DHT22;14032;52.510;7.342;2022-07-06T14:41:43;19.40;98.00
26326;DHT22;14032;52.510;7.342;2022-07-06T14:44:08;19.40;97.70
26326;DHT22;14032;52.510;7.342;2022-07-06T14:46:34;19.40;98.00
26326;DHT22;14032;52.510;7.342;2022-07-06T14:49:00;19.30;98.30
26326;DHT22;14032;52.510;7.342;2022-07-06T14:51:26;19.30;98.60
26326;DHT22;14032;52.510;7.342;2022-07-06T14:53:52;19.20;99.20
26326;DHT22;14032;52.510;7.342;2022-07-06T14:56:18;19.20;98.40
26326;DHT22;14032;52.510;7.342;2022-07-06T14:58:43;19.20;98.30
26326;DHT22;14032;52.510;7.342;2022-07-06T15:01:09;19.10;99.90
26326;DHT22;14032;52.510;7.342;2022-07-06T15:03:35;19.10;99.90
26326;DHT22;14032;52.510;7.342;2022-07-06T15:06:01;19.10;99.60
26326;DHT22;14032;52.510;7.342;2022-07-06T15:08:26;19.00;99.90
26326;DHT22;14032;52.510;7.342;2022-07-06T15:10:52;19.00;99.90
26326;DHT22;14032;52.510;7.342;2022-07-06T15:13:18;19.00;99.90
26326;DHT22;14032;52.510;7.342;2022-07-06T15:15:44;18.90;99.90
26326;DHT22;14032;52.510;7.342;2022-07-06T15:18:09;18.90;99.90
26326;DHT22;14032;52.510;7.342;2022-07-06T15:20:35;18.90;99.90
26326;DHT22;14032;52.510;7.342;2022-07-06T15:23:00;19.00;99.90
26326;DHT22;14032;52.510;7.342;2022-07-06T15:25:26;19.00;99.90
26326;DHT22;14032;52.510;7.342;2022-07-06T15:27:52;19.00;99.90
26326;DHT22;14032;52.510;7.342;2022-07-06T15:30:18;19.00;99.90
26326;DHT22;14032;52.510;7.342;2022-07-06T15:32:44;19.00;99.90
26326;DHT22;14032;52.510;7.342;2022-07-06T15:35:09;19.00;99.70